createdAt,value
2018-08-30T00:00:11.703Z,3.40
2018-08-30T00:02:41.386Z,3.37
2018-08-30T00:05:11.524Z,3.50
2018-08-30T00:07:41.118Z,3.83
2018-08-30T00:10:10.740Z,3.47
2018-08-30T00:12:40.310Z,3.37
2018-08-30T00:15:09.915Z,3.50
2018-08-30T00:17:39.555Z,3.50
2018-08-30T00:20:09.240Z,3.57
2018-08-30T00:22:38.991Z,3.70
2018-08-30T00:25:08.508Z,4.33
2018-08-30T00:27:38.318Z,4.00
2018-08-30T00:30:07.994Z,3.97
2018-08-30T00:32:37.816Z,3.30
2018-08-30T00:35:08.119Z,3.80
2018-08-30T00:37:37.957Z,3.53
2018-08-30T00:40:08.036Z,3.83
2018-08-30T00:42:37.778Z,3.60
2018-08-30T00:45:14.578Z,3.90
2018-08-30T00:47:47.709Z,3.80
2018-08-30T00:50:17.590Z,3.90
2018-08-30T00:52:47.778Z,4.37
2018-08-30T00:55:17.486Z,4.23
2018-08-30T00:57:47.108Z,3.97
2018-08-30T01:00:17.128Z,3.93
2018-08-30T01:02:46.899Z,4.40
2018-08-30T01:05:16.720Z,4.63
2018-08-30T01:07:46.411Z,4.37
2018-08-30T01:10:16.342Z,4.17
2018-08-30T01:12:51.127Z,4.33
2018-08-30T01:15:20.994Z,4.47
2018-08-30T01:17:50.787Z,4.10
2018-08-30T01:20:20.900Z,4.20
2018-08-30T01:22:50.871Z,4.00
2018-08-30T01:25:21.320Z,4.20
2018-08-30T01:27:51.153Z,4.23
2018-08-30T01:30:21.062Z,4.30
2018-08-30T01:32:50.786Z,3.90
2018-08-30T01:35:20.579Z,4.30
2018-08-30T01:37:50.233Z,4.10
2018-08-30T01:40:19.948Z,3.90
2018-08-30T01:42:49.698Z,3.97
2018-08-30T01:45:19.566Z,3.90
2018-08-30T01:47:49.139Z,3.80
2018-08-30T01:50:18.734Z,4.00
2018-08-30T01:52:48.370Z,3.83
2018-08-30T01:55:18.059Z,3.80
2018-08-30T01:57:47.682Z,3.90
2018-08-30T02:00:17.295Z,3.93
2018-08-30T02:02:47.086Z,3.10
2018-08-30T02:05:16.794Z,2.97
2018-08-30T02:07:46.518Z,3.70
2018-08-30T02:10:16.260Z,2.83
2018-08-30T02:12:45.835Z,3.20
2018-08-30T02:15:15.620Z,2.97
2018-08-30T02:17:45.355Z,2.90
2018-08-30T02:20:15.062Z,2.63
2018-08-30T02:22:44.572Z,2.70
2018-08-30T02:25:14.090Z,2.37
2018-08-30T02:27:43.614Z,2.27
2018-08-30T02:30:13.217Z,2.17
2018-08-30T02:32:42.784Z,2.40
2018-08-30T02:35:12.316Z,2.30
2018-08-30T02:37:41.883Z,2.17
2018-08-30T02:40:11.572Z,2.60
2018-08-30T02:42:41.197Z,2.13
2018-08-30T02:45:10.914Z,2.50
2018-08-30T02:47:40.604Z,2.40
2018-08-30T02:50:10.231Z,2.67
2018-08-30T02:52:39.822Z,2.50
2018-08-30T02:55:09.394Z,2.60
2018-08-30T02:57:39.161Z,2.30
2018-08-30T03:00:08.888Z,2.57
2018-08-30T03:02:38.460Z,2.77
2018-08-30T03:05:08.731Z,2.80
2018-08-30T03:07:38.588Z,2.67
2018-08-30T03:10:08.518Z,2.73
2018-08-30T03:12:38.135Z,2.67
2018-08-30T03:15:12.519Z,2.47
2018-08-30T03:17:42.395Z,2.50
2018-08-30T03:20:14.318Z,2.80
2018-08-30T03:22:44.139Z,3.00
2018-08-30T03:25:13.727Z,3.73
2018-08-30T03:27:43.355Z,3.50
2018-08-30T03:30:13.254Z,3.40
2018-08-30T03:32:43.109Z,3.97
2018-08-30T03:35:13.299Z,4.47
2018-08-30T03:37:42.913Z,4.43
2018-08-30T03:40:12.510Z,4.03
2018-08-30T03:42:42.335Z,4.50
2018-08-30T03:45:12.020Z,4.33
2018-08-30T03:47:41.738Z,4.47
2018-08-30T03:50:11.356Z,4.93
2018-08-30T03:52:41.056Z,5.27
2018-08-30T03:55:10.791Z,5.13
2018-08-30T03:57:40.787Z,5.57
2018-08-30T04:00:10.896Z,5.47
2018-08-30T04:02:40.636Z,5.27
2018-08-30T04:05:10.404Z,5.10
2018-08-30T04:07:40.034Z,5.20
2018-08-30T04:10:09.752Z,4.97
2018-08-30T04:12:39.431Z,5.47
2018-08-30T04:15:09.071Z,5.00
2018-08-30T04:17:38.565Z,5.83
2018-08-30T04:20:08.177Z,6.90
2018-08-30T04:22:37.878Z,6.53
2018-08-30T04:25:07.470Z,6.23
2018-08-30T04:27:37.146Z,7.17
2018-08-30T04:30:07.554Z,9.27
2018-08-30T04:32:37.200Z,7.20
2018-08-30T04:35:07.175Z,8.13
2018-08-30T04:37:36.828Z,7.70
2018-08-30T04:40:06.722Z,8.40
2018-08-30T04:42:36.431Z,7.60
2018-08-30T04:45:07.016Z,7.90
2018-08-30T04:47:36.899Z,7.23
2018-08-30T04:50:06.541Z,7.57
2018-08-30T04:52:36.328Z,6.70
2018-08-30T04:55:05.918Z,7.00
2018-08-30T04:57:35.656Z,6.27
2018-08-30T05:00:05.443Z,6.80
2018-08-30T05:02:35.067Z,7.00
2018-08-30T05:05:04.658Z,6.43
2018-08-30T05:07:34.398Z,6.53
2018-08-30T05:10:04.181Z,6.33
2018-08-30T05:12:33.930Z,6.17
2018-08-30T05:15:03.478Z,6.37
2018-08-30T05:17:33.142Z,6.17
2018-08-30T05:20:02.698Z,6.00
2018-08-30T05:22:32.358Z,6.53
2018-08-30T05:25:02.393Z,6.53
2018-08-30T05:27:32.059Z,6.27
2018-08-30T05:30:01.572Z,5.37
2018-08-30T05:32:31.356Z,6.70
2018-08-30T05:35:01.168Z,6.40
2018-08-30T05:37:30.803Z,5.87
2018-08-30T05:40:00.501Z,6.37
2018-08-30T05:42:30.156Z,5.93
2018-08-30T05:44:59.800Z,6.40
2018-08-30T05:47:29.523Z,6.13
2018-08-30T05:49:59.223Z,6.20
2018-08-30T05:52:28.928Z,7.20
2018-08-30T05:54:58.899Z,7.30
2018-08-30T05:57:28.438Z,7.50
2018-08-30T05:59:58.198Z,7.90
2018-08-30T06:02:29.103Z,9.50
2018-08-30T06:04:59.366Z,9.90
2018-08-30T06:07:29.138Z,9.20
2018-08-30T06:09:58.887Z,8.77
2018-08-30T06:12:28.668Z,9.07
2018-08-30T06:14:58.647Z,10.70
2018-08-30T06:17:28.280Z,10.03
2018-08-30T06:19:58.328Z,11.00
2018-08-30T06:22:28.100Z,10.03
2018-08-30T06:24:57.852Z,11.07
2018-08-30T06:27:27.391Z,11.97
2018-08-30T06:29:57.042Z,11.50
2018-08-30T06:32:26.991Z,12.20
2018-08-30T06:34:56.580Z,12.20
2018-08-30T06:37:26.073Z,11.53
2018-08-30T06:39:55.635Z,12.90
2018-08-30T06:42:25.292Z,12.80
2018-08-30T06:44:54.888Z,13.63
2018-08-30T06:47:24.563Z,13.90
2018-08-30T06:49:54.190Z,14.13
2018-08-30T06:52:24.071Z,13.50
2018-08-30T06:54:53.724Z,13.70
2018-08-30T06:57:23.540Z,13.60
2018-08-30T06:59:53.238Z,13.03
2018-08-30T07:02:22.945Z,14.33
2018-08-30T07:04:52.574Z,14.80
2018-08-30T07:07:22.169Z,13.50
2018-08-30T07:09:51.949Z,13.50
2018-08-30T07:12:21.619Z,13.37
2018-08-30T07:14:51.362Z,13.43
2018-08-30T07:17:21.183Z,13.87
2018-08-30T07:19:50.816Z,14.20
2018-08-30T07:22:20.599Z,15.00
2018-08-30T07:24:50.243Z,13.33
2018-08-30T07:27:19.924Z,13.73
2018-08-30T07:29:49.595Z,14.10
2018-08-30T07:32:19.313Z,14.00
2018-08-30T07:34:49.012Z,12.70
2018-08-30T07:37:18.599Z,13.00
2018-08-30T07:39:48.168Z,13.37
2018-08-30T07:42:17.684Z,13.07
2018-08-30T07:44:47.394Z,15.30
2018-08-30T07:47:17.284Z,13.20
2018-08-30T07:49:47.036Z,12.30
2018-08-30T07:52:16.706Z,12.43
2018-08-30T07:54:46.681Z,11.83
2018-08-30T07:57:16.298Z,12.60
2018-08-30T07:59:46.160Z,12.57
2018-08-30T08:02:15.850Z,10.30
2018-08-30T08:04:45.551Z,11.17
2018-08-30T08:07:15.440Z,13.13
2018-08-30T08:09:45.186Z,11.37
2018-08-30T08:12:14.920Z,10.83
2018-08-30T08:14:44.611Z,11.70
2018-08-30T08:17:14.223Z,12.13
2018-08-30T08:19:43.946Z,11.10
2018-08-30T08:22:13.662Z,10.67
2018-08-30T08:24:43.235Z,11.30
2018-08-30T08:27:12.855Z,9.27
2018-08-30T08:29:42.555Z,9.40
2018-08-30T08:32:12.172Z,9.87
2018-08-30T08:34:41.814Z,9.43
2018-08-30T08:37:11.555Z,9.50
2018-08-30T08:39:41.214Z,9.53
2018-08-30T08:42:11.019Z,8.03
2018-08-30T08:44:40.718Z,8.50
2018-08-30T08:47:10.506Z,8.60
2018-08-30T08:49:40.054Z,7.73
2018-08-30T08:52:10.035Z,7.33
2018-08-30T08:54:39.656Z,7.90
2018-08-30T08:57:09.358Z,7.23
2018-08-30T08:59:39.171Z,7.70
2018-08-30T09:02:08.866Z,7.50
2018-08-30T09:04:38.731Z,7.90
2018-08-30T09:07:08.653Z,7.70
2018-08-30T09:09:38.538Z,7.77
2018-08-30T09:12:08.241Z,7.57
2018-08-30T09:14:37.935Z,7.57
2018-08-30T09:17:07.780Z,8.67
2018-08-30T09:19:37.344Z,7.97
2018-08-30T09:22:07.510Z,7.30
2018-08-30T09:24:37.092Z,7.80
2018-08-30T09:27:06.845Z,7.23
2018-08-30T09:29:36.591Z,7.90
2018-08-30T09:32:06.906Z,7.97
2018-08-30T09:34:36.655Z,7.53
2018-08-30T09:37:06.295Z,7.73
2018-08-30T09:39:35.838Z,7.37
2018-08-30T09:42:05.748Z,7.43
2018-08-30T09:44:35.472Z,7.60
2018-08-30T09:47:05.503Z,8.43
2018-08-30T09:49:35.135Z,7.73
2018-08-30T09:52:05.355Z,7.57
2018-08-30T09:54:34.952Z,7.57
2018-08-30T09:57:04.682Z,7.33
2018-08-30T09:59:34.330Z,8.00
2018-08-30T10:02:09.085Z,6.70
2018-08-30T10:04:38.730Z,7.93
2018-08-30T10:07:08.400Z,7.43
2018-08-30T10:09:37.947Z,7.90
2018-08-30T10:12:07.491Z,7.03
2018-08-30T10:14:37.063Z,8.20
2018-08-30T10:17:07.227Z,7.60
2018-08-30T10:19:36.820Z,8.10
2018-08-30T10:22:06.422Z,7.47
2018-08-30T10:24:36.167Z,8.60
2018-08-30T10:27:06.238Z,7.73
2018-08-30T10:29:35.791Z,8.40
2018-08-30T10:32:05.873Z,8.73
2018-08-30T10:34:35.415Z,8.47
2018-08-30T10:37:05.547Z,8.60
2018-08-30T10:39:35.238Z,7.63
2018-08-30T10:42:04.773Z,7.97
2018-08-30T10:44:34.352Z,8.90
2018-08-30T10:47:03.880Z,8.83
2018-08-30T10:49:33.572Z,8.00
2018-08-30T10:52:03.203Z,8.03
2018-08-30T10:54:32.742Z,8.50
2018-08-30T10:57:02.289Z,9.27
2018-08-30T10:59:32.974Z,8.70
2018-08-30T11:02:02.561Z,9.70
2018-08-30T11:04:32.351Z,8.97
2018-08-30T11:07:02.146Z,9.50
2018-08-30T11:09:32.482Z,9.80
2018-08-30T11:12:02.067Z,8.90
2018-08-30T11:14:31.599Z,9.20
2018-08-30T11:17:01.199Z,8.53
2018-08-30T11:19:31.333Z,8.67
2018-08-30T11:22:01.115Z,9.03
2018-08-30T11:24:31.233Z,9.17
2018-08-30T11:27:01.037Z,9.50
2018-08-30T11:29:31.079Z,9.30
2018-08-30T11:32:00.869Z,9.50
2018-08-30T11:34:30.610Z,9.10
2018-08-30T11:37:00.493Z,10.50
2018-08-30T11:39:30.196Z,9.30
2018-08-30T11:41:59.916Z,10.20
2018-08-30T11:44:29.711Z,8.70
2018-08-30T11:46:59.930Z,9.25
2018-08-30T11:49:29.544Z,8.87
2018-08-30T11:51:59.135Z,7.93
2018-08-30T11:54:29.064Z,9.50
2018-08-30T11:56:58.782Z,9.30
2018-08-30T11:59:28.299Z,9.67
2018-08-30T12:01:57.901Z,9.20
2018-08-30T12:04:27.591Z,9.20
2018-08-30T12:06:57.666Z,9.50
2018-08-30T12:09:27.834Z,9.10
2018-08-30T12:11:57.844Z,9.50
2018-08-30T12:14:27.588Z,9.20
2018-08-30T12:16:57.283Z,9.60
2018-08-30T12:19:26.838Z,9.50
2018-08-30T12:21:56.465Z,9.37
2018-08-30T12:24:26.186Z,9.17
2018-08-30T12:26:56.175Z,9.93
2018-08-30T12:29:26.240Z,9.70
2018-08-30T12:31:56.071Z,9.13
2018-08-30T12:34:26.212Z,8.70
2018-08-30T12:36:56.155Z,10.00
2018-08-30T12:39:26.553Z,9.87
2018-08-30T12:41:56.552Z,9.57
2018-08-30T12:44:26.362Z,9.60
2018-08-30T12:46:56.592Z,9.57
2018-08-30T12:49:26.608Z,9.40
2018-08-30T12:51:56.452Z,9.37
2018-08-30T12:54:26.205Z,9.10
2018-08-30T12:56:55.996Z,9.37
2018-08-30T12:59:30.851Z,9.30
2018-08-30T13:02:00.595Z,10.00
2018-08-30T13:04:30.493Z,9.83
2018-08-30T13:07:00.188Z,9.60
2018-08-30T13:09:29.961Z,9.90
2018-08-30T13:12:00.716Z,9.93
2018-08-30T13:14:30.343Z,9.10
2018-08-30T13:17:00.154Z,8.13
2018-08-30T13:19:30.049Z,9.83
2018-08-30T13:21:59.586Z,9.90
2018-08-30T13:24:29.432Z,10.10
2018-08-30T13:26:59.239Z,9.23
2018-08-30T13:29:29.092Z,9.50
2018-08-30T13:31:59.152Z,9.40
2018-08-30T13:34:28.782Z,9.03
2018-08-30T13:36:59.107Z,9.30
2018-08-30T13:39:28.930Z,8.53
2018-08-30T13:41:58.619Z,9.10
2018-08-30T13:44:28.516Z,8.93
2018-08-30T13:46:58.143Z,8.67
2018-08-30T13:49:28.161Z,8.93
2018-08-30T13:51:58.187Z,8.27
2018-08-30T13:54:27.785Z,7.40
2018-08-30T13:56:57.777Z,9.30
2018-08-30T13:59:27.478Z,9.77
2018-08-30T14:01:56.984Z,10.13
2018-08-30T14:04:26.946Z,9.83
2018-08-30T14:06:56.798Z,10.70
2018-08-30T14:09:26.241Z,10.73
2018-08-30T14:11:56.333Z,10.47
2018-08-30T14:14:25.739Z,9.93
2018-08-30T14:16:55.295Z,11.43
2018-08-30T14:19:25.076Z,10.93
2018-08-30T14:21:55.146Z,10.10
2018-08-30T14:24:24.891Z,10.00
2018-08-30T14:26:54.563Z,10.07
2018-08-30T14:29:24.227Z,9.83
2018-08-30T14:31:53.771Z,10.10
2018-08-30T14:34:23.396Z,9.10
2018-08-30T14:36:53.041Z,9.90
2018-08-30T14:39:22.803Z,8.37
2018-08-30T14:41:52.512Z,9.33
2018-08-30T14:44:22.121Z,9.40
2018-08-30T14:46:51.666Z,8.83
2018-08-30T14:49:21.426Z,9.27
2018-08-30T14:51:51.052Z,9.80
2018-08-30T14:54:20.601Z,9.70
2018-08-30T14:56:50.962Z,9.80
2018-08-30T14:59:20.753Z,10.17
2018-08-30T15:01:50.407Z,8.60
2018-08-30T15:04:20.158Z,10.10
2018-08-30T15:06:49.850Z,9.43
2018-08-30T15:09:19.417Z,9.07
2018-08-30T15:11:48.995Z,10.20
2018-08-30T15:14:18.551Z,9.77
2018-08-30T15:16:48.205Z,9.73
2018-08-30T15:19:17.903Z,10.90
2018-08-30T15:21:47.624Z,9.57
2018-08-30T15:24:17.334Z,9.60
2018-08-30T15:26:47.091Z,8.97
2018-08-30T15:29:16.769Z,9.53
2018-08-30T15:31:46.626Z,9.10
2018-08-30T15:34:16.368Z,9.70
2018-08-30T15:36:46.164Z,9.40
2018-08-30T15:39:15.935Z,10.60
2018-08-30T15:41:45.787Z,9.70
2018-08-30T15:44:15.666Z,9.40
2018-08-30T15:46:45.607Z,9.63
2018-08-30T15:49:15.637Z,9.83
2018-08-30T15:51:45.564Z,10.27
2018-08-30T15:54:15.303Z,9.53
2018-08-30T15:56:45.122Z,10.30
2018-08-30T15:59:15.088Z,10.10
2018-08-30T16:01:44.802Z,9.00
2018-08-30T16:04:15.000Z,9.93
2018-08-30T16:06:44.915Z,9.50
2018-08-30T16:09:14.661Z,9.53
2018-08-30T16:11:44.698Z,10.50
2018-08-30T16:14:14.530Z,10.03
2018-08-30T16:16:44.484Z,10.00
2018-08-30T16:19:14.576Z,10.00
2018-08-30T16:21:44.533Z,10.47
2018-08-30T16:24:14.318Z,9.97
2018-08-30T16:26:45.445Z,10.17
2018-08-30T16:29:15.485Z,10.13
2018-08-30T16:31:45.383Z,10.03
2018-08-30T16:34:15.131Z,10.70
2018-08-30T16:36:44.947Z,10.53
2018-08-30T16:39:14.910Z,10.77
2018-08-30T16:41:44.688Z,10.10
2018-08-30T16:44:14.467Z,11.03
2018-08-30T16:46:44.378Z,10.20
2018-08-30T16:49:14.092Z,10.90
2018-08-30T16:51:44.056Z,11.63
2018-08-30T16:54:13.928Z,10.23
2018-08-30T16:56:44.135Z,11.03
2018-08-30T16:59:13.916Z,10.27
2018-08-30T17:01:43.743Z,10.63
2018-08-30T17:04:13.492Z,10.10
2018-08-30T17:06:43.404Z,10.70
2018-08-30T17:09:13.229Z,10.27
2018-08-30T17:11:42.987Z,10.73
2018-08-30T17:14:12.821Z,11.27
2018-08-30T17:16:42.728Z,10.40
2018-08-30T17:19:21.950Z,10.73
2018-08-30T17:21:51.747Z,10.77
2018-08-30T17:24:21.616Z,10.50
2018-08-30T17:26:51.490Z,11.20
2018-08-30T17:29:21.430Z,10.77
2018-08-30T17:31:50.988Z,11.20
2018-08-30T17:34:20.780Z,11.33
2018-08-30T17:36:50.703Z,10.97
2018-08-30T17:39:20.986Z,10.53
2018-08-30T17:41:50.792Z,11.20
2018-08-30T17:44:20.541Z,11.23
2018-08-30T17:46:50.408Z,11.50
2018-08-30T17:49:20.334Z,11.37
2018-08-30T17:51:50.475Z,11.63
2018-08-30T17:54:20.279Z,11.63
2018-08-30T17:56:50.250Z,12.40
2018-08-30T17:59:20.199Z,11.50
2018-08-30T18:01:50.107Z,11.10
2018-08-30T18:04:19.916Z,11.37
2018-08-30T18:06:50.024Z,11.90
2018-08-30T18:09:19.866Z,12.50
2018-08-30T18:11:50.056Z,12.40
2018-08-30T18:14:19.975Z,11.03
2018-08-30T18:16:50.023Z,11.70
2018-08-30T18:19:19.817Z,12.07
2018-08-30T18:21:49.532Z,11.10
2018-08-30T18:24:19.225Z,10.47
2018-08-30T18:26:48.900Z,11.27
2018-08-30T18:29:18.672Z,11.73
2018-08-30T18:31:48.337Z,11.77
2018-08-30T18:34:18.265Z,11.83
2018-08-30T18:36:47.980Z,11.87
2018-08-30T18:39:17.603Z,10.67
2018-08-30T18:41:47.292Z,11.33
2018-08-30T18:44:16.993Z,10.93
2018-08-30T18:46:46.892Z,12.30
2018-08-30T18:49:16.567Z,10.90
2018-08-30T18:51:46.138Z,12.10
2018-08-30T18:54:15.825Z,11.47
2018-08-30T18:56:45.568Z,11.97
2018-08-30T18:59:15.237Z,12.40
2018-08-30T19:01:45.003Z,11.93
2018-08-30T19:04:14.879Z,11.63
2018-08-30T19:06:44.812Z,12.93
2018-08-30T19:09:14.912Z,11.60
2018-08-30T19:11:44.503Z,10.93
2018-08-30T19:14:14.132Z,10.57
2018-08-30T19:16:48.848Z,12.17
2018-08-30T19:19:24.056Z,11.57
2018-08-30T19:21:54.038Z,11.23
2018-08-30T19:24:29.194Z,12.60
2018-08-30T19:26:59.285Z,10.63
2018-08-30T19:29:29.283Z,11.93
2018-08-30T19:31:58.988Z,12.50
2018-08-30T19:34:29.001Z,12.00
2018-08-30T19:36:59.249Z,12.10
2018-08-30T19:39:29.224Z,12.13
2018-08-30T19:41:59.031Z,10.93
2018-08-30T19:44:28.788Z,11.87
2018-08-30T19:46:58.763Z,13.00
2018-08-30T19:49:28.547Z,12.20
2018-08-30T19:51:58.223Z,12.70
2018-08-30T19:54:27.816Z,12.50
2018-08-30T19:56:57.492Z,13.27
2018-08-30T19:59:27.239Z,12.17
2018-08-30T20:01:57.000Z,13.60
2018-08-30T20:04:26.855Z,13.13
2018-08-30T20:06:56.484Z,12.50
2018-08-30T20:09:26.069Z,13.27
2018-08-30T20:11:56.143Z,13.53
2018-08-30T20:14:25.988Z,13.83
2018-08-30T20:16:55.818Z,13.57
2018-08-30T20:19:25.392Z,12.50
2018-08-30T20:21:55.272Z,12.73
2018-08-30T20:24:26.859Z,13.00
2018-08-30T20:26:56.486Z,12.10
2018-08-30T20:29:26.080Z,13.00
2018-08-30T20:31:55.828Z,12.87
2018-08-30T20:34:25.599Z,12.80
2018-08-30T20:36:55.321Z,12.37
2018-08-30T20:39:25.154Z,14.30
2018-08-30T20:41:55.012Z,12.80
2018-08-30T20:44:24.743Z,12.70
2018-08-30T20:46:54.446Z,12.80
2018-08-30T20:49:24.147Z,13.20
2018-08-30T20:51:53.951Z,13.90
2018-08-30T20:54:23.564Z,13.13
2018-08-30T20:56:53.316Z,12.67
2018-08-30T20:59:23.035Z,13.43
2018-08-30T21:01:53.530Z,13.30
2018-08-30T21:04:23.598Z,12.40
2018-08-30T21:06:53.266Z,13.77
2018-08-30T21:09:22.879Z,13.20
2018-08-30T21:11:52.554Z,13.63
2018-08-30T21:14:22.178Z,12.80
2018-08-30T21:16:51.976Z,13.60
2018-08-30T21:19:21.724Z,13.40
2018-08-30T21:21:51.471Z,13.50
2018-08-30T21:24:21.229Z,13.60
2018-08-30T21:26:50.903Z,13.83
2018-08-30T21:29:20.839Z,13.10
2018-08-30T21:31:50.691Z,13.80
2018-08-30T21:34:20.527Z,13.37
2018-08-30T21:36:50.188Z,14.00
2018-08-30T21:39:20.000Z,13.03
2018-08-30T21:41:49.639Z,13.73
2018-08-30T21:44:19.398Z,13.30
2018-08-30T21:46:49.178Z,13.37
2018-08-30T21:49:19.203Z,14.10
2018-08-30T21:51:48.946Z,13.80
2018-08-30T21:54:18.582Z,14.37
2018-08-30T21:56:48.411Z,13.77
2018-08-30T21:59:18.055Z,16.03
2018-08-30T22:01:47.843Z,14.43
2018-08-30T22:04:17.570Z,14.17
2018-08-30T22:06:47.591Z,14.80
2018-08-30T22:09:17.282Z,14.50
2018-08-30T22:11:46.907Z,14.53
2018-08-30T22:14:16.527Z,14.50
2018-08-30T22:16:46.248Z,14.70
2018-08-30T22:19:16.323Z,15.77
2018-08-30T22:21:45.983Z,14.90
2018-08-30T22:24:17.191Z,13.80
2018-08-30T22:26:46.954Z,15.63
2018-08-30T22:29:16.714Z,16.00
2018-08-30T22:31:46.363Z,14.53
2018-08-30T22:34:16.069Z,15.27
2018-08-30T22:36:45.626Z,15.10
2018-08-30T22:39:15.367Z,15.17
2018-08-30T22:41:44.948Z,14.33
2018-08-30T22:44:14.699Z,15.30
2018-08-30T22:46:44.269Z,14.70
2018-08-30T22:49:13.891Z,14.60
2018-08-30T22:51:43.583Z,14.60
2018-08-30T22:54:13.214Z,14.00
2018-08-30T22:56:43.000Z,13.90
2018-08-30T22:59:12.725Z,13.80
2018-08-30T23:01:42.522Z,15.80
2018-08-30T23:04:12.168Z,14.80
2018-08-30T23:06:42.038Z,15.17
2018-08-30T23:09:12.145Z,15.27
2018-08-30T23:11:41.759Z,16.67
2018-08-30T23:14:11.347Z,16.87
2018-08-30T23:16:41.174Z,17.10
2018-08-30T23:19:10.827Z,17.17
2018-08-30T23:21:40.599Z,16.37
2018-08-30T23:24:10.355Z,17.07
2018-08-30T23:26:40.131Z,17.10
2018-08-30T23:29:09.951Z,16.40
2018-08-30T23:31:39.723Z,17.23
2018-08-30T23:34:09.379Z,16.47
2018-08-30T23:36:39.366Z,16.67
2018-08-30T23:39:11.467Z,16.10
2018-08-30T23:41:41.093Z,16.83
2018-08-30T23:44:10.741Z,16.97
2018-08-30T23:46:40.366Z,16.40
2018-08-30T23:49:10.015Z,16.50
2018-08-30T23:51:39.579Z,16.20
2018-08-30T23:54:09.285Z,15.63
2018-08-30T23:56:39.008Z,17.43
2018-08-30T23:59:25.594Z,16.63
